createdAt,value
2023-02-26T00:00:00.437Z,0.80
2023-02-26T00:02:02.402Z,0.90
2023-02-26T00:04:05.337Z,1.02
2023-02-26T00:06:07.371Z,0.70
2023-02-26T00:08:08.996Z,1.10
2023-02-26T00:10:12.704Z,0.73
2023-02-26T00:12:14.676Z,0.80
2023-02-26T00:14:16.903Z,0.82
2023-02-26T00:16:21.379Z,0.85
2023-02-26T00:18:23.151Z,0.77
2023-02-26T00:20:25.974Z,0.90
2023-02-26T00:22:27.773Z,0.85
2023-02-26T00:24:29.268Z,0.85
2023-02-26T00:26:32.051Z,0.80
2023-02-26T00:28:34.068Z,0.95
2023-02-26T00:30:36.344Z,0.65
2023-02-26T00:32:39.650Z,0.80
2023-02-26T00:34:41.369Z,1.10
2023-02-26T00:36:48.729Z,0.80
2023-02-26T00:39:34.275Z,0.70
2023-02-26T00:41:36.529Z,0.90
2023-02-26T00:43:38.333Z,0.70
2023-02-26T00:45:44.342Z,0.82
2023-02-26T00:48:15.729Z,0.95
2023-02-26T00:50:23.832Z,0.88
2023-02-26T00:52:44.176Z,1.00
2023-02-26T00:54:45.717Z,0.85
2023-02-26T00:56:49.419Z,0.90
2023-02-26T00:58:50.891Z,1.00
2023-02-26T01:00:52.342Z,1.40
2023-02-26T01:02:54.169Z,0.98
2023-02-26T01:04:56.290Z,0.80
2023-02-26T01:06:58.319Z,0.90
2023-02-26T01:09:13.074Z,0.60
2023-02-26T01:11:14.825Z,1.05
2023-02-26T01:13:16.562Z,1.15
2023-02-26T01:15:18.738Z,1.02
2023-02-26T01:17:36.039Z,1.10
2023-02-26T01:19:47.065Z,1.00
2023-02-26T01:21:55.175Z,0.95
2023-02-26T01:23:56.781Z,1.67
2023-02-26T01:26:03.357Z,0.90
2023-02-26T01:28:05.063Z,0.90
2023-02-26T01:30:07.439Z,0.80
2023-02-26T01:32:19.654Z,1.00
2023-02-26T01:34:21.095Z,0.80
2023-02-26T01:36:25.519Z,0.93
2023-02-26T01:38:34.991Z,0.60
2023-02-26T01:40:53.544Z,0.80
2023-02-26T01:43:01.091Z,0.88
2023-02-26T01:45:16.442Z,0.80
2023-02-26T01:47:21.616Z,1.00
2023-02-26T01:49:23.444Z,0.70
2023-02-26T01:52:01.439Z,0.75
2023-02-26T01:54:03.033Z,1.00
2023-02-26T01:56:13.248Z,0.63
2023-02-26T01:58:15.164Z,0.90
2023-02-26T02:00:17.616Z,0.63
2023-02-26T02:02:22.021Z,1.00
2023-02-26T02:04:24.581Z,0.82
2023-02-26T02:06:29.769Z,1.33
2023-02-26T02:08:35.655Z,0.75
2023-02-26T02:10:42.366Z,0.88
2023-02-26T02:12:49.503Z,0.63
2023-02-26T02:15:12.627Z,0.60
2023-02-26T02:17:24.066Z,0.60
2023-02-26T02:19:43.860Z,0.80
2023-02-26T02:21:54.752Z,0.70
2023-02-26T02:27:35.584Z,0.70
2023-02-26T02:29:48.980Z,1.88
2023-02-26T02:32:15.715Z,0.65
2023-02-26T02:34:21.821Z,0.70
2023-02-26T02:36:43.327Z,0.90
2023-02-26T02:38:59.093Z,0.60
2023-02-26T02:41:26.627Z,0.80
2023-02-26T02:43:33.448Z,0.70
2023-02-26T02:45:46.249Z,0.60
2023-02-26T02:47:54.316Z,0.68
2023-02-26T02:50:14.731Z,0.57
2023-02-26T02:52:38.808Z,0.82
2023-02-26T02:54:54.219Z,0.50
2023-02-26T02:57:07.459Z,0.70
2023-02-26T02:59:18.045Z,0.80
2023-02-26T03:01:23.450Z,0.50
2023-02-26T03:03:55.435Z,0.63
2023-02-26T03:05:56.908Z,0.60
2023-02-26T03:08:06.527Z,0.70
2023-02-26T03:10:08.881Z,0.75
2023-02-26T03:12:10.662Z,0.80
2023-02-26T03:14:14.616Z,1.00
2023-02-26T03:16:31.261Z,0.80
2023-02-26T03:18:44.955Z,0.77
2023-02-26T03:21:11.926Z,0.80
2023-02-26T03:23:24.729Z,0.70
2023-02-26T03:25:37.732Z,0.70
2023-02-26T03:27:47.633Z,1.75
2023-02-26T03:29:59.034Z,0.60
2023-02-26T03:32:07.583Z,0.55
2023-02-26T03:34:24.448Z,0.52
2023-02-26T03:36:43.069Z,0.88
2023-02-26T03:41:04.222Z,0.70
2023-02-26T03:43:15.563Z,0.55
2023-02-26T03:45:23.512Z,0.75
2023-02-26T03:47:26.122Z,0.90
2023-02-26T03:49:35.797Z,0.40
2023-02-26T03:51:40.662Z,1.15
2023-02-26T03:53:54.145Z,0.90
2023-02-26T03:56:12.421Z,1.02
2023-02-26T03:58:14.285Z,0.70
2023-02-26T04:00:17.782Z,0.70
2023-02-26T04:02:27.123Z,0.88
2023-02-26T04:04:42.447Z,0.85
2023-02-26T04:06:45.292Z,0.40
2023-02-26T04:08:47.869Z,0.85
2023-02-26T04:10:54.225Z,0.70
2023-02-26T04:12:59.916Z,0.77
2023-02-26T04:15:01.965Z,0.65
2023-02-26T04:17:04.440Z,0.98
2023-02-26T04:19:05.886Z,0.70
2023-02-26T04:21:07.352Z,0.73
2023-02-26T04:23:08.815Z,0.93
2023-02-26T04:25:10.345Z,0.82
2023-02-26T04:27:11.842Z,0.60
2023-02-26T04:29:14.625Z,0.85
2023-02-26T04:31:16.279Z,0.68
2023-02-26T04:33:17.772Z,0.70
2023-02-26T04:35:19.267Z,0.50
2023-02-26T04:37:20.735Z,0.70
2023-02-26T04:39:22.237Z,0.85
2023-02-26T04:41:23.760Z,0.90
2023-02-26T04:43:25.232Z,0.63
2023-02-26T04:45:26.770Z,0.90
2023-02-26T04:47:28.230Z,0.85
2023-02-26T04:49:29.713Z,0.75
2023-02-26T04:51:31.420Z,0.90
2023-02-26T04:53:33.350Z,0.60
2023-02-26T04:55:36.709Z,0.93
2023-02-26T04:57:38.163Z,0.80
2023-02-26T04:59:39.684Z,0.60
2023-02-26T05:01:41.273Z,0.90
2023-02-26T05:03:42.751Z,0.88
2023-02-26T05:05:45.061Z,0.68
2023-02-26T05:07:46.566Z,0.93
2023-02-26T05:09:48.017Z,1.70
2023-02-26T05:11:49.889Z,0.70
2023-02-26T05:13:51.472Z,0.68
2023-02-26T05:15:56.093Z,0.60
2023-02-26T05:17:57.734Z,0.43
2023-02-26T05:19:59.206Z,0.60
2023-02-26T05:22:00.736Z,0.70
2023-02-26T05:24:02.232Z,0.47
2023-02-26T05:26:03.818Z,0.60
2023-02-26T05:28:05.338Z,0.60
2023-02-26T05:30:07.670Z,0.70
2023-02-26T05:32:09.216Z,0.50
2023-02-26T05:34:10.979Z,0.50
2023-02-26T05:36:13.131Z,1.13
2023-02-26T05:38:14.742Z,0.65
2023-02-26T05:40:16.258Z,0.40
2023-02-26T05:42:17.796Z,0.60
2023-02-26T05:44:19.280Z,0.90
2023-02-26T05:46:20.884Z,0.70
2023-02-26T05:48:23.545Z,0.60
2023-02-26T05:50:25.071Z,0.75
2023-02-26T05:52:26.624Z,0.70
2023-02-26T05:54:28.077Z,0.93
2023-02-26T05:56:29.628Z,0.77
2023-02-26T05:58:33.878Z,0.80
2023-02-26T06:00:35.568Z,0.50
2023-02-26T06:02:37.057Z,0.70
2023-02-26T06:04:38.593Z,0.63
2023-02-26T06:06:40.157Z,0.80
2023-02-26T06:08:41.911Z,0.40
2023-02-26T06:10:43.976Z,1.17
2023-02-26T06:12:45.454Z,0.60
2023-02-26T06:14:46.924Z,0.80
2023-02-26T06:16:48.478Z,0.60
2023-02-26T06:18:50.066Z,0.60
2023-02-26T06:20:51.528Z,0.90
2023-02-26T06:22:52.992Z,0.68
2023-02-26T06:24:55.660Z,1.67
2023-02-26T06:26:57.112Z,0.50
2023-02-26T06:28:59.154Z,0.70
2023-02-26T06:31:00.799Z,0.70
2023-02-26T06:33:02.408Z,0.60
2023-02-26T06:35:04.926Z,0.70
2023-02-26T06:37:06.517Z,0.70
2023-02-26T06:39:08.102Z,0.55
2023-02-26T06:41:09.573Z,0.63
2023-02-26T06:43:11.396Z,0.60
2023-02-26T06:45:12.870Z,0.50
2023-02-26T06:47:14.537Z,0.70
2023-02-26T06:49:16.212Z,0.88
2023-02-26T06:51:17.737Z,0.70
2023-02-26T06:53:19.257Z,0.80
2023-02-26T06:55:21.959Z,0.50
2023-02-26T06:57:23.611Z,0.65
2023-02-26T06:59:25.145Z,0.80
2023-02-26T07:01:27.229Z,1.20
2023-02-26T07:03:28.729Z,0.80
2023-02-26T07:05:30.249Z,0.70
2023-02-26T07:07:31.848Z,0.50
2023-02-26T07:09:33.345Z,0.60
2023-02-26T07:11:34.873Z,0.90
2023-02-26T07:13:39.680Z,0.50
2023-02-26T07:15:41.221Z,0.70
2023-02-26T07:17:43.218Z,1.17
2023-02-26T07:19:44.672Z,0.73
2023-02-26T07:21:46.636Z,1.30
2023-02-26T07:23:48.107Z,0.70
2023-02-26T07:25:50.125Z,0.55
2023-02-26T07:27:52.302Z,0.77
2023-02-26T07:29:53.817Z,0.57
2023-02-26T07:31:55.453Z,0.70
2023-02-26T07:33:57.306Z,0.63
2023-02-26T07:35:58.786Z,0.70
2023-02-26T07:38:00.535Z,0.70
2023-02-26T07:40:02.068Z,0.93
2023-02-26T07:42:03.651Z,1.00
2023-02-26T07:44:05.110Z,0.60
2023-02-26T07:46:06.705Z,0.57
2023-02-26T07:48:08.263Z,0.90
2023-02-26T07:50:10.831Z,0.77
2023-02-26T07:52:12.343Z,0.50
2023-02-26T07:54:14.538Z,0.82
2023-02-26T07:56:16.017Z,1.20
2023-02-26T07:58:18.445Z,0.70
2023-02-26T08:00:20.190Z,0.65
2023-02-26T08:02:23.418Z,0.70
2023-02-26T08:04:25.023Z,0.60
2023-02-26T08:06:27.135Z,0.60
2023-02-26T08:08:29.189Z,4.30
2023-02-26T08:10:31.365Z,0.55
2023-02-26T08:12:33.110Z,0.80
2023-02-26T08:14:34.654Z,0.50
2023-02-26T08:16:36.166Z,0.63
2023-02-26T08:18:37.621Z,0.68
2023-02-26T08:20:39.124Z,0.70
2023-02-26T08:22:41.177Z,0.88
2023-02-26T08:24:42.638Z,0.60
2023-02-26T08:26:46.191Z,0.80
2023-02-26T08:28:48.551Z,0.88
2023-02-26T08:30:53.152Z,0.70
2023-02-26T08:32:54.723Z,0.70
2023-02-26T08:34:56.246Z,0.50
2023-02-26T08:36:57.733Z,0.82
2023-02-26T08:38:59.232Z,0.90
2023-02-26T08:41:00.920Z,0.70
2023-02-26T08:43:04.011Z,0.95
2023-02-26T08:45:06.016Z,0.80
2023-02-26T08:47:07.595Z,0.75
2023-02-26T08:49:09.138Z,0.60
2023-02-26T08:51:10.843Z,0.68
2023-02-26T08:53:12.521Z,1.00
2023-02-26T08:55:13.982Z,0.68
2023-02-26T08:57:15.475Z,0.63
2023-02-26T08:59:16.968Z,0.80
2023-02-26T09:01:18.484Z,0.80
2023-02-26T09:03:19.948Z,0.63
2023-02-26T09:05:22.070Z,0.90
2023-02-26T09:07:23.519Z,0.63
2023-02-26T09:09:24.977Z,0.80
2023-02-26T09:11:26.682Z,0.65
2023-02-26T09:13:28.997Z,0.90
2023-02-26T09:15:30.468Z,0.80
2023-02-26T09:17:32.254Z,0.85
2023-02-26T09:19:33.755Z,0.88
2023-02-26T09:21:35.830Z,0.80
2023-02-26T09:23:37.319Z,0.85
2023-02-26T09:25:39.147Z,0.95
2023-02-26T09:27:40.708Z,0.70
2023-02-26T09:29:42.241Z,0.60
2023-02-26T09:31:43.991Z,0.60
2023-02-26T09:33:45.647Z,0.75
2023-02-26T09:35:51.062Z,0.90
2023-02-26T09:37:52.533Z,0.82
2023-02-26T09:39:55.023Z,0.93
2023-02-26T09:42:01.973Z,0.80
2023-02-26T09:44:17.513Z,0.60
2023-02-26T09:46:33.776Z,0.50
2023-02-26T09:48:38.692Z,0.50
2023-02-26T09:50:48.662Z,0.90
2023-02-26T09:53:16.927Z,0.75
2023-02-26T09:55:34.479Z,0.60
2023-02-26T09:57:42.115Z,0.93
2023-02-26T09:59:43.685Z,0.65
2023-02-26T10:02:04.089Z,0.50
2023-02-26T10:04:08.374Z,0.70
2023-02-26T10:06:15.677Z,0.80
2023-02-26T10:08:18.913Z,0.45
2023-02-26T10:10:49.764Z,0.68
2023-02-26T10:12:52.979Z,0.82
2023-02-26T10:15:03.429Z,0.98
2023-02-26T10:17:23.466Z,0.60
2023-02-26T10:19:37.272Z,0.57
2023-02-26T10:21:50.754Z,0.60
2023-02-26T10:24:04.140Z,0.57
2023-02-26T10:26:19.694Z,0.55
2023-02-26T10:28:52.139Z,0.70
2023-02-26T10:31:06.207Z,0.88
2023-02-26T10:33:22.170Z,0.60
2023-02-26T10:35:27.183Z,0.50
2023-02-26T10:37:54.807Z,0.77
2023-02-26T10:40:09.242Z,0.47
2023-02-26T10:42:17.340Z,0.40
2023-02-26T10:44:40.530Z,0.50
2023-02-26T10:46:52.045Z,0.60
2023-02-26T10:49:29.715Z,0.50
2023-02-26T10:51:38.644Z,0.70
2023-02-26T10:53:43.836Z,0.45
2023-02-26T10:55:48.497Z,0.50
2023-02-26T10:58:14.959Z,0.70
2023-02-26T11:00:21.195Z,0.68
2023-02-26T11:02:33.620Z,0.75
2023-02-26T11:04:35.161Z,0.60
2023-02-26T11:06:42.624Z,0.50
2023-02-26T11:08:47.885Z,0.40
2023-02-26T11:10:58.130Z,0.38
2023-02-26T11:12:59.635Z,0.50
2023-02-26T11:15:02.186Z,0.60
2023-02-26T11:17:20.790Z,0.50
2023-02-26T11:19:49.763Z,0.70
2023-02-26T11:21:51.751Z,0.28
2023-02-26T11:24:02.930Z,0.70
2023-02-26T11:26:07.866Z,0.90
2023-02-26T11:28:29.778Z,0.80
2023-02-26T11:30:37.174Z,0.47
2023-02-26T11:32:39.577Z,0.70
2023-02-26T11:34:47.131Z,0.80
2023-02-26T11:36:48.948Z,0.80
2023-02-26T11:39:18.148Z,0.40
2023-02-26T11:41:19.672Z,0.38
2023-02-26T11:43:23.680Z,0.40
2023-02-26T11:45:25.663Z,0.60
2023-02-26T11:47:31.009Z,0.43
2023-02-26T11:49:32.605Z,0.40
2023-02-26T11:51:34.140Z,0.40
2023-02-26T11:53:37.476Z,0.40
2023-02-26T11:55:50.327Z,0.50
2023-02-26T11:57:54.851Z,0.50
2023-02-26T11:59:59.632Z,0.40
2023-02-26T12:02:12.787Z,0.57
2023-02-26T12:04:18.876Z,0.45
2023-02-26T12:06:24.733Z,0.45
2023-02-26T12:08:38.254Z,0.77
2023-02-26T12:11:08.958Z,0.40
2023-02-26T12:13:22.382Z,0.30
2023-02-26T12:15:33.901Z,0.50
2023-02-26T12:18:05.495Z,0.40
2023-02-26T12:20:15.339Z,0.65
2023-02-26T12:22:35.125Z,0.50
2023-02-26T12:24:57.974Z,0.40
2023-02-26T12:27:40.879Z,0.38
2023-02-26T12:30:04.323Z,0.50
2023-02-26T12:32:32.658Z,0.65
2023-02-26T12:34:52.294Z,0.43
2023-02-26T12:37:40.737Z,0.40
2023-02-26T12:42:03.141Z,0.47
2023-02-26T12:44:18.551Z,0.60
2023-02-26T12:46:35.660Z,0.43
2023-02-26T12:48:58.421Z,0.63
2023-02-26T12:51:11.945Z,0.40
2023-02-26T12:53:50.769Z,0.60
2023-02-26T12:56:28.170Z,0.60
2023-02-26T12:59:26.313Z,0.50
2023-02-26T13:02:34.691Z,0.70
2023-02-26T13:04:56.358Z,0.45
2023-02-26T13:07:20.357Z,0.73
2023-02-26T13:09:58.163Z,0.60
2023-02-26T13:12:39.593Z,1.27
2023-02-26T13:15:03.489Z,0.60
2023-02-26T13:17:31.026Z,1.10
2023-02-26T13:19:43.192Z,0.70
2023-02-26T13:21:53.318Z,1.00
2023-02-26T13:24:01.239Z,0.60
2023-02-26T13:26:09.050Z,0.60
2023-02-26T13:28:30.902Z,0.40
2023-02-26T13:30:43.158Z,0.30
2023-02-26T13:32:48.125Z,0.45
2023-02-26T13:35:04.892Z,0.40
2023-02-26T13:37:10.672Z,0.50
2023-02-26T13:39:42.824Z,0.50
2023-02-26T13:41:54.790Z,0.43
2023-02-26T13:44:13.012Z,0.50
2023-02-26T13:46:36.402Z,0.40
2023-02-26T13:49:09.026Z,0.70
2023-02-26T13:51:36.782Z,0.40
2023-02-26T13:53:41.214Z,0.60
2023-02-26T13:55:46.717Z,0.60
2023-02-26T13:57:52.215Z,0.60
2023-02-26T14:00:12.530Z,0.50
2023-02-26T14:02:19.775Z,0.68
2023-02-26T14:04:22.351Z,0.82
2023-02-26T14:06:44.450Z,0.75
2023-02-26T14:08:49.169Z,1.63
2023-02-26T14:10:58.576Z,0.40
2023-02-26T14:13:20.975Z,0.70
2023-02-26T14:15:39.518Z,0.73
2023-02-26T14:17:49.000Z,0.50
2023-02-26T14:19:53.526Z,0.40
2023-02-26T14:22:19.989Z,1.15
2023-02-26T14:24:50.461Z,0.43
2023-02-26T14:27:08.617Z,4.40
2023-02-26T14:29:19.964Z,0.80
2023-02-26T14:31:26.497Z,0.55
2023-02-26T14:33:30.838Z,0.60
2023-02-26T14:35:36.262Z,0.50
2023-02-26T14:37:40.091Z,0.65
2023-02-26T14:40:21.536Z,0.85
2023-02-26T14:42:25.680Z,0.65
2023-02-26T14:44:36.766Z,0.50
2023-02-26T14:46:39.495Z,0.40
2023-02-26T14:48:41.193Z,0.50
2023-02-26T14:51:05.655Z,0.73
2023-02-26T14:53:43.876Z,1.13
2023-02-26T14:55:48.362Z,0.63
2023-02-26T14:57:49.771Z,0.60
2023-02-26T15:00:13.882Z,0.60
2023-02-26T15:02:24.788Z,0.55
2023-02-26T15:04:38.256Z,0.80
2023-02-26T15:06:46.956Z,0.60
2023-02-26T15:09:09.918Z,0.93
2023-02-26T15:11:44.514Z,0.55
2023-02-26T15:13:55.766Z,0.70
2023-02-26T15:16:12.939Z,0.95
2023-02-26T15:18:34.651Z,1.00
2023-02-26T15:20:52.233Z,10.45
2023-02-26T15:23:08.903Z,5.25
2023-02-26T15:25:26.229Z,4.80
2023-02-26T15:27:30.700Z,3.63
2023-02-26T15:29:37.737Z,0.93
2023-02-26T15:31:45.349Z,0.60
2023-02-26T15:33:50.739Z,2.20
2023-02-26T15:35:54.638Z,1.75
2023-02-26T15:37:59.331Z,0.60
2023-02-26T15:40:05.113Z,4.10
2023-02-26T15:42:06.869Z,4.50
2023-02-26T15:44:13.948Z,3.67
2023-02-26T15:46:16.026Z,3.03
2023-02-26T15:48:21.941Z,1.80
2023-02-26T15:50:30.630Z,3.63
2023-02-26T15:52:33.253Z,4.20
2023-02-26T15:54:41.542Z,11.85
2023-02-26T15:56:43.422Z,9.20
2023-02-26T15:58:50.202Z,11.63
2023-02-26T16:00:54.220Z,3.03
2023-02-26T16:02:59.435Z,1.50
2023-02-26T16:05:02.885Z,8.93
2023-02-26T16:07:04.540Z,7.35
2023-02-26T16:09:09.070Z,4.15
2023-02-26T16:11:12.258Z,4.07
2023-02-26T16:13:40.781Z,1.67
2023-02-26T16:15:44.784Z,0.80
2023-02-26T16:17:49.411Z,0.57
2023-02-26T16:19:52.001Z,0.75
2023-02-26T16:21:56.044Z,0.90
2023-02-26T16:23:59.913Z,1.00
2023-02-26T16:26:04.855Z,1.45
2023-02-26T16:28:16.489Z,0.70
2023-02-26T16:30:23.450Z,1.15
2023-02-26T16:32:28.009Z,1.20
2023-02-26T16:34:37.351Z,1.00
2023-02-26T16:36:41.785Z,1.88
2023-02-26T16:39:04.899Z,1.20
2023-02-26T16:41:11.269Z,0.95
2023-02-26T16:43:53.186Z,1.00
2023-02-26T16:45:56.819Z,1.10
2023-02-26T16:47:59.544Z,1.02
2023-02-26T16:50:02.740Z,1.13
2023-02-26T16:52:05.331Z,1.35
2023-02-26T16:54:19.570Z,1.80
2023-02-26T16:56:26.469Z,1.70
2023-02-26T16:58:30.587Z,1.20
2023-02-26T17:00:33.220Z,1.10
2023-02-26T17:02:36.899Z,0.90
2023-02-26T17:04:39.224Z,1.13
2023-02-26T17:06:42.068Z,0.90
2023-02-26T17:08:52.496Z,0.80
2023-02-26T17:11:01.069Z,0.93
2023-02-26T17:13:12.750Z,1.05
2023-02-26T17:15:28.376Z,0.90
2023-02-26T17:17:29.907Z,0.75
2023-02-26T17:19:31.354Z,0.80
2023-02-26T17:21:33.032Z,0.98
2023-02-26T17:23:37.634Z,0.70
2023-02-26T17:25:43.213Z,1.25
2023-02-26T17:27:45.886Z,1.08
2023-02-26T17:29:51.013Z,1.13
2023-02-26T17:31:53.036Z,0.73
2023-02-26T17:33:54.634Z,0.90
2023-02-26T17:35:59.525Z,1.30
2023-02-26T17:38:01.217Z,1.30
2023-02-26T17:40:04.926Z,1.20
2023-02-26T17:42:15.586Z,1.15
2023-02-26T17:44:17.180Z,1.00
2023-02-26T17:46:18.662Z,1.40
2023-02-26T17:48:20.470Z,1.42
2023-02-26T17:50:40.731Z,1.45
2023-02-26T17:52:42.206Z,1.83
2023-02-26T17:54:44.225Z,2.40
2023-02-26T17:56:45.845Z,2.30
2023-02-26T17:58:49.312Z,2.72
2023-02-26T18:00:53.147Z,3.50
2023-02-26T18:02:54.786Z,2.70
2023-02-26T18:04:56.428Z,2.30
2023-02-26T18:06:58.010Z,2.10
2023-02-26T18:08:59.482Z,2.00
2023-02-26T18:11:02.476Z,2.30
2023-02-26T18:13:04.194Z,1.98
2023-02-26T18:15:06.298Z,2.20
2023-02-26T18:17:12.490Z,1.98
2023-02-26T18:19:15.350Z,3.13
2023-02-26T18:21:16.814Z,2.40
2023-02-26T18:23:19.071Z,1.85
2023-02-26T18:25:21.983Z,1.65
2023-02-26T18:27:26.003Z,1.60
2023-02-26T18:29:27.753Z,1.83
2023-02-26T18:31:34.760Z,1.92
2023-02-26T18:33:38.716Z,2.10
2023-02-26T18:35:45.847Z,1.90
2023-02-26T18:37:52.880Z,1.73
2023-02-26T18:39:55.811Z,1.70
2023-02-26T18:41:57.269Z,1.60
2023-02-26T18:44:00.110Z,3.10
2023-02-26T18:46:02.288Z,2.15
2023-02-26T18:48:04.039Z,1.92
2023-02-26T18:50:07.258Z,1.88
2023-02-26T18:52:09.246Z,2.13
2023-02-26T18:54:10.714Z,1.90
2023-02-26T18:56:12.312Z,2.30
2023-02-26T18:58:13.787Z,2.00
2023-02-26T19:00:15.744Z,2.15
2023-02-26T19:02:17.423Z,2.45
2023-02-26T19:04:18.929Z,2.72
2023-02-26T19:06:20.415Z,2.25
2023-02-26T19:08:21.903Z,1.90
2023-02-26T19:10:23.440Z,2.33
2023-02-26T19:12:26.421Z,2.20
2023-02-26T19:14:28.221Z,1.67
2023-02-26T19:16:34.931Z,1.73
2023-02-26T19:18:36.407Z,1.85
2023-02-26T19:20:37.915Z,1.95
2023-02-26T19:22:40.079Z,2.40
2023-02-26T19:24:43.074Z,1.85
2023-02-26T19:26:44.611Z,1.70
2023-02-26T19:28:46.159Z,1.92
2023-02-26T19:30:47.684Z,1.98
2023-02-26T19:32:50.281Z,2.10
2023-02-26T19:34:52.531Z,1.45
2023-02-26T19:36:54.102Z,2.03
2023-02-26T19:38:55.574Z,2.17
2023-02-26T19:40:57.847Z,1.83
2023-02-26T19:42:59.315Z,2.13
2023-02-26T19:45:01.209Z,2.00
2023-02-26T19:47:02.803Z,2.28
2023-02-26T19:49:04.419Z,2.10
2023-02-26T19:51:06.807Z,1.85
2023-02-26T19:53:08.368Z,1.60
2023-02-26T19:55:10.349Z,2.33
2023-02-26T19:57:11.831Z,2.00
2023-02-26T19:59:13.360Z,2.10
2023-02-26T20:01:14.943Z,2.45
2023-02-26T20:03:16.449Z,1.65
2023-02-26T20:05:18.269Z,2.08
2023-02-26T20:07:19.798Z,1.70
2023-02-26T20:09:22.880Z,1.70
2023-02-26T20:11:24.707Z,1.80
2023-02-26T20:13:29.793Z,2.90
2023-02-26T20:15:31.385Z,2.85
2023-02-26T20:17:33.958Z,3.08
2023-02-26T20:19:35.414Z,1.90
2023-02-26T20:21:36.878Z,1.60
2023-02-26T20:23:39.702Z,1.80
2023-02-26T20:25:43.154Z,2.10
2023-02-26T20:27:45.117Z,1.60
2023-02-26T20:29:47.142Z,1.63
2023-02-26T20:31:49.990Z,2.15
2023-02-26T20:33:52.754Z,2.10
2023-02-26T20:35:54.629Z,2.30
2023-02-26T20:37:56.102Z,2.30
2023-02-26T20:39:57.581Z,2.42
2023-02-26T20:41:59.513Z,2.10
2023-02-26T20:44:01.083Z,2.30
2023-02-26T20:46:02.776Z,3.17
2023-02-26T20:48:05.921Z,1.83
2023-02-26T20:50:09.648Z,2.58
2023-02-26T20:52:11.146Z,2.28
2023-02-26T20:54:14.695Z,2.58
2023-02-26T20:56:17.721Z,2.20
2023-02-26T20:58:19.206Z,2.30
2023-02-26T21:00:21.637Z,2.97
2023-02-26T21:02:23.153Z,3.65
2023-02-26T21:04:24.700Z,3.20
2023-02-26T21:06:26.183Z,3.70
2023-02-26T21:08:27.660Z,3.85
2023-02-26T21:10:29.216Z,4.47
2023-02-26T21:12:31.180Z,3.78
2023-02-26T21:14:33.082Z,3.70
2023-02-26T21:16:36.214Z,3.50
2023-02-26T21:18:37.713Z,3.63
2023-02-26T21:20:39.227Z,4.15
2023-02-26T21:22:40.715Z,4.00
2023-02-26T21:24:42.430Z,4.22
2023-02-26T21:26:43.876Z,3.88
2023-02-26T21:28:48.334Z,4.22
2023-02-26T21:30:53.537Z,4.38
2023-02-26T21:32:55.129Z,4.05
2023-02-26T21:34:58.781Z,4.40
2023-02-26T21:37:05.584Z,5.50
2023-02-26T21:39:07.054Z,5.00
2023-02-26T21:41:08.513Z,4.53
2023-02-26T21:43:10.652Z,5.18
2023-02-26T21:45:12.444Z,5.80
2023-02-26T21:47:13.928Z,5.78
2023-02-26T21:49:15.421Z,6.30
2023-02-26T21:51:17.045Z,5.47
2023-02-26T21:53:18.539Z,5.97
2023-02-26T21:55:20.045Z,4.85
2023-02-26T21:57:21.496Z,5.90
2023-02-26T21:59:23.522Z,4.95
2023-02-26T22:01:25.456Z,5.50
2023-02-26T22:03:27.056Z,6.13
2023-02-26T22:05:28.536Z,5.90
2023-02-26T22:07:29.997Z,6.97
2023-02-26T22:09:31.465Z,7.00
2023-02-26T22:11:32.948Z,6.65
2023-02-26T22:13:34.509Z,6.35
2023-02-26T22:15:35.969Z,6.68
2023-02-26T22:17:37.596Z,6.22
2023-02-26T22:19:39.083Z,6.70
2023-02-26T22:21:40.588Z,5.82
2023-02-26T22:23:42.099Z,6.20
2023-02-26T22:25:43.582Z,6.20
2023-02-26T22:27:45.080Z,6.70
2023-02-26T22:29:46.557Z,6.03
2023-02-26T22:31:48.217Z,5.38
2023-02-26T22:33:49.801Z,5.75
2023-02-26T22:35:51.509Z,5.82
2023-02-26T22:37:53.010Z,6.53
2023-02-26T22:39:54.546Z,5.43
2023-02-26T22:41:56.545Z,5.78
2023-02-26T22:43:58.210Z,6.10
2023-02-26T22:45:59.691Z,5.63
2023-02-26T22:48:01.161Z,5.38
2023-02-26T22:50:02.680Z,6.07
2023-02-26T22:52:05.887Z,5.55
2023-02-26T22:54:07.395Z,5.57
2023-02-26T22:56:08.875Z,6.13
2023-02-26T22:58:10.452Z,6.00
2023-02-26T23:00:15.687Z,7.07
2023-02-26T23:02:17.132Z,6.32
2023-02-26T23:04:18.624Z,6.90
2023-02-26T23:06:20.198Z,6.90
2023-02-26T23:08:21.740Z,6.30
2023-02-26T23:10:23.349Z,6.22
2023-02-26T23:12:24.830Z,6.05
2023-02-26T23:14:26.975Z,6.00
2023-02-26T23:16:28.465Z,6.13
2023-02-26T23:18:30.031Z,5.95
2023-02-26T23:20:31.550Z,5.85
2023-02-26T23:22:33.018Z,6.13
2023-02-26T23:24:34.526Z,6.47
2023-02-26T23:26:35.997Z,5.85
2023-02-26T23:28:37.732Z,7.15
2023-02-26T23:30:39.855Z,6.25
2023-02-26T23:32:41.487Z,6.05
2023-02-26T23:34:43.115Z,5.50
2023-02-26T23:36:44.589Z,5.82
2023-02-26T23:38:46.097Z,4.95
2023-02-26T23:40:48.329Z,5.78
2023-02-26T23:42:49.807Z,5.65
2023-02-26T23:44:51.318Z,5.38
2023-02-26T23:46:52.775Z,5.22
2023-02-26T23:48:55.628Z,5.53
2023-02-26T23:50:57.085Z,5.68
2023-02-26T23:52:58.567Z,5.82
2023-02-26T23:55:01.021Z,5.28
2023-02-26T23:57:02.501Z,5.18
2023-02-26T23:59:04.650Z,4.88
